KSIY/SIY METAR and TAF weather

Enter ICAO airport designator
Station Type Date Time Source
KSIY METAR 2021/09/25 10:53 UTC NOAA

KSIY 251053Z AUTO 04006KT 10SM CLR 11/01 A3001 RMK AO2 SLP150 T01110011


Station Type Date Time Source
KSIY Decoded METAR 2021/09/25 10:53 UTC NOAA

MONTAGUE SISKIYOU COUNTY, CA, United States (KSIY) 41-46N 122-28W
Sep 25, 2021 - 06:53 AM EDT / 2021.09.25 1053 UTC
Wind: from the NE (040 degrees) at 7 MPH (6 KT):0
Visibility: 10 mile(s):0
Sky conditions: clear
Temperature: 52.0 F (11.1 C)
Dew Point: 34.0 F (1.1 C)
Relative Humidity: 50%
Pressure (altimeter): 30.01 in. Hg (1016 hPa)
ob: KSIY 251053Z AUTO 04006KT 10SM CLR 11/01 A3001 RMK AO2 SLP150 T01110011
cycle: 11

Station Type Date Time Source
KSIY TAF UTC NOAA

Error!

Example: see airport list